Terminal Aerodrome Forecast
Issued by NWS

Home | Current Version | Previous Version | Text Only | Print | Product List | Glossary Off
Versions: 1 2 3 4 5 6 7 8 9 10 11 12 13 14 15

000
FTUS43 KGRB 191100
TAFAUW
TAF
KAUW 191138Z 1912/2012 12010KT P6SM SCT070 BKN140 WS010/14035KT
     FM191400 15015G23KT P6SM SCT040 BKN140
     FM200100 16010KT P6SM BKN035 OVC080 WS012/18040KT
      TEMPO 2004/2008 -RA BKN025
     FM200800 19008KT 6SM -RA BR SCT012 OVC020 WS012/21040KT
      TEMPO 2010/2012 4SM -RA BR OVC012=

USA.gov is the U.S. government's official web portal to all federal, state and local government web resources and services.